createdAt,value
2022-12-17T00:03:45.899Z,18.36
2022-12-17T00:09:06.142Z,18.28
2022-12-17T00:14:25.786Z,18.18
2022-12-17T00:19:45.423Z,18.42
2022-12-17T00:25:05.204Z,18.64
2022-12-17T00:30:25.544Z,18.57
2022-12-17T00:35:45.204Z,18.42
2022-12-17T00:41:11.952Z,18.76
2022-12-17T00:46:31.761Z,18.62
2022-12-17T00:51:51.444Z,18.38
2022-12-17T00:57:11.092Z,18.67
2022-12-17T01:02:31.268Z,18.72
2022-12-17T01:07:51.292Z,18.56
2022-12-17T01:13:11.555Z,18.76
2022-12-17T01:18:37.951Z,18.69
2022-12-17T01:23:57.545Z,18.99
2022-12-17T01:29:17.340Z,18.68
2022-12-17T01:34:38.996Z,18.57
2022-12-17T01:39:58.711Z,18.47
2022-12-17T01:45:18.442Z,18.35
2022-12-17T01:50:38.249Z,18.46
2022-12-17T01:55:58.172Z,18.42
2022-12-17T02:01:18.083Z,18.06
2022-12-17T02:06:44.318Z,18.04
2022-12-17T02:12:56.499Z,18.40
2022-12-17T02:18:18.119Z,18.26
2022-12-17T02:24:13.468Z,18.42
2022-12-17T02:29:33.107Z,18.38
2022-12-17T02:35:02.300Z,18.51
2022-12-17T02:40:22.503Z,18.29
2022-12-17T02:45:42.382Z,18.36
2022-12-17T02:51:02.349Z,18.71
2022-12-17T02:56:22.263Z,18.68
2022-12-17T03:01:41.961Z,18.92
2022-12-17T03:07:01.942Z,18.79
2022-12-17T03:12:22.152Z,18.96
2022-12-17T03:17:41.732Z,19.08
2022-12-17T03:23:01.451Z,19.06
2022-12-17T03:28:23.096Z,19.05
2022-12-17T03:33:42.771Z,19.17
2022-12-17T03:39:02.397Z,19.17
2022-12-17T03:44:22.607Z,19.56
2022-12-17T03:49:42.738Z,19.49
2022-12-17T03:55:02.498Z,19.48
2022-12-17T04:00:23.168Z,19.68
2022-12-17T04:05:42.865Z,19.67
2022-12-17T04:11:02.506Z,19.70
2022-12-17T04:16:22.391Z,19.61
2022-12-17T04:21:41.999Z,19.69
2022-12-17T04:27:01.787Z,19.84
2022-12-17T04:32:22.036Z,19.61
2022-12-17T04:37:41.829Z,19.76
2022-12-17T04:43:01.545Z,19.49
2022-12-17T04:48:22.629Z,19.63
2022-12-17T04:53:42.275Z,19.71
2022-12-17T04:59:01.893Z,19.92
2022-12-17T05:04:22.107Z,19.80
2022-12-17T05:09:43.112Z,19.69
2022-12-17T05:15:03.057Z,19.85
2022-12-17T05:20:23.196Z,19.56
2022-12-17T05:25:43.111Z,19.57
2022-12-17T05:31:10.100Z,19.32
2022-12-17T05:36:29.728Z,19.31
2022-12-17T05:41:49.351Z,19.39
2022-12-17T05:47:09.069Z,19.04
2022-12-17T05:52:28.843Z,19.25
2022-12-17T05:57:53.058Z,19.27
2022-12-17T06:03:19.578Z,19.54
2022-12-17T06:08:39.691Z,19.25
2022-12-17T06:13:59.404Z,19.12
2022-12-17T06:19:19.051Z,19.31
2022-12-17T06:24:42.755Z,19.70
2022-12-17T06:30:05.439Z,19.70
2022-12-17T06:35:25.811Z,19.76
2022-12-17T06:40:45.832Z,19.57
2022-12-17T06:46:05.513Z,19.73
2022-12-17T06:51:25.277Z,19.70
2022-12-17T06:56:45.564Z,19.72
2022-12-17T07:02:05.378Z,20.07
2022-12-17T07:07:25.264Z,19.90
2022-12-17T07:12:44.983Z,20.29
2022-12-17T07:18:15.458Z,19.90
2022-12-17T07:23:35.570Z,20.13
2022-12-17T07:28:55.453Z,20.25
2022-12-17T07:34:15.177Z,20.05
2022-12-17T07:39:34.913Z,20.00
2022-12-17T07:44:54.536Z,20.28
2022-12-17T07:50:14.319Z,20.46
2022-12-17T07:55:34.502Z,20.42
2022-12-17T08:00:54.375Z,20.41
2022-12-17T08:06:16.538Z,20.71
2022-12-17T08:11:36.183Z,20.79
2022-12-17T08:16:55.869Z,20.53
2022-12-17T08:22:16.584Z,20.76
2022-12-17T08:27:36.155Z,20.98
2022-12-17T08:32:55.949Z,20.81
2022-12-17T08:38:22.890Z,20.59
2022-12-17T08:43:42.549Z,20.63
2022-12-17T08:49:02.334Z,20.30
2022-12-17T08:54:22.467Z,20.36
2022-12-17T08:59:41.999Z,20.32
2022-12-17T09:05:01.651Z,20.31
2022-12-17T09:10:21.777Z,20.45
2022-12-17T09:15:41.485Z,20.19
2022-12-17T09:21:01.208Z,20.21
2022-12-17T09:26:20.948Z,20.29
2022-12-17T09:31:40.471Z,20.26
2022-12-17T09:37:02.107Z,20.22
2022-12-17T09:42:31.878Z,20.47
2022-12-17T09:48:17.981Z,20.42
2022-12-17T09:53:44.692Z,20.49
2022-12-17T09:59:04.774Z,20.57
2022-12-17T10:04:29.445Z,20.76
2022-12-17T10:10:06.135Z,20.82
2022-12-17T10:15:26.439Z,20.90
2022-12-17T10:20:54.368Z,21.28
2022-12-17T10:26:14.551Z,21.16
2022-12-17T10:31:37.976Z,21.28
2022-12-17T10:37:04.947Z,21.21
2022-12-17T10:42:48.363Z,21.30
2022-12-17T10:48:08.487Z,21.44
2022-12-17T10:53:39.428Z,21.67
2022-12-17T10:59:07.631Z,21.27
2022-12-17T11:04:56.703Z,21.12
2022-12-17T11:10:16.943Z,21.30
2022-12-17T11:15:39.056Z,21.17
2022-12-17T11:21:05.069Z,21.28
2022-12-17T11:26:28.056Z,21.81
2022-12-17T11:32:06.265Z,21.78
2022-12-17T11:37:37.674Z,21.67
2022-12-17T11:43:16.955Z,21.73
2022-12-17T11:48:46.639Z,21.62
2022-12-17T11:54:40.851Z,22.03
2022-12-17T12:00:34.159Z,21.90
2022-12-17T12:06:26.098Z,21.85
2022-12-17T12:11:51.861Z,21.49
2022-12-17T12:17:15.565Z,21.57
2022-12-17T12:22:44.191Z,21.45
2022-12-17T12:28:09.923Z,21.34
2022-12-17T12:33:35.010Z,21.13
2022-12-17T12:38:57.476Z,21.07
2022-12-17T12:44:18.168Z,21.46
2022-12-17T12:50:10.528Z,20.96
2022-12-17T12:55:30.419Z,21.08
2022-12-17T13:00:58.022Z,20.96
2022-12-17T13:05:59.472Z,20.55
2022-12-17T13:11:28.508Z,20.63
2022-12-17T13:16:52.097Z,20.61
2022-12-17T13:21:53.615Z,20.38
2022-12-17T13:26:54.996Z,20.26
2022-12-17T13:32:11.771Z,20.18
2022-12-17T13:37:31.323Z,20.26
2022-12-17T13:42:34.748Z,20.19
2022-12-17T13:47:38.159Z,20.02
2022-12-17T13:52:39.539Z,19.88
2022-12-17T13:57:44.900Z,19.73
2022-12-17T14:02:46.543Z,19.92
2022-12-17T14:07:51.364Z,19.91
2022-12-17T14:13:04.030Z,19.78
2022-12-17T14:18:05.472Z,19.93
2022-12-17T14:23:28.463Z,19.90
2022-12-17T14:28:35.190Z,19.74
2022-12-17T14:33:37.593Z,19.76
2022-12-17T14:38:39.451Z,19.79
2022-12-17T14:43:40.891Z,19.92
2022-12-17T14:49:00.484Z,19.81
2022-12-17T14:54:14.120Z,19.87
2022-12-17T14:59:35.407Z,19.59
2022-12-17T15:04:37.511Z,19.67
2022-12-17T15:09:38.980Z,19.91
2022-12-17T15:14:40.463Z,19.69
2022-12-17T15:19:41.871Z,19.56
2022-12-17T15:24:46.020Z,19.62
2022-12-17T15:29:47.395Z,19.51
2022-12-17T15:34:49.034Z,19.54
2022-12-17T15:39:51.007Z,19.76
2022-12-17T15:44:52.571Z,19.84
2022-12-17T15:49:53.968Z,19.89
2022-12-17T15:54:55.915Z,20.07
2022-12-17T15:59:57.316Z,19.98
2022-12-17T16:04:58.687Z,20.15
2022-12-17T16:10:04.827Z,20.06
2022-12-17T16:15:07.974Z,19.91
2022-12-17T16:20:09.918Z,20.20
2022-12-17T16:25:11.367Z,20.06
2022-12-17T16:30:13.526Z,20.06
2022-12-17T16:35:14.932Z,19.56
2022-12-17T16:40:16.312Z,19.79
2022-12-17T16:45:17.695Z,19.27
2022-12-17T16:50:19.092Z,19.32
2022-12-17T16:55:20.470Z,19.28
2022-12-17T17:00:21.877Z,19.33
2022-12-17T17:05:23.272Z,19.17
2022-12-17T17:10:24.862Z,19.13
2022-12-17T17:15:26.241Z,19.06
2022-12-17T17:20:27.646Z,19.13
2022-12-17T17:25:44.327Z,19.02
2022-12-17T17:30:50.433Z,19.46
2022-12-17T17:35:51.833Z,19.18
2022-12-17T17:40:57.149Z,19.09
2022-12-17T17:46:07.886Z,19.42
2022-12-17T17:51:18.050Z,19.52
2022-12-17T17:56:21.633Z,19.58
2022-12-17T18:01:24.680Z,19.39
2022-12-17T18:06:26.299Z,19.49
2022-12-17T18:11:28.548Z,19.47
2022-12-17T18:16:32.150Z,19.76
2022-12-17T18:21:33.680Z,19.76
2022-12-17T18:26:37.798Z,19.58
2022-12-17T18:31:39.303Z,19.29
2022-12-17T18:36:41.612Z,19.46
2022-12-17T18:42:01.880Z,19.24
2022-12-17T18:47:03.305Z,19.44
2022-12-17T18:52:05.029Z,19.49
2022-12-17T18:57:06.392Z,19.24
2022-12-17T19:02:14.065Z,19.18
2022-12-17T19:07:15.543Z,19.41
2022-12-17T19:12:16.932Z,19.11
2022-12-17T19:17:18.296Z,19.19
2022-12-17T19:22:19.659Z,19.14
2022-12-17T19:27:21.038Z,19.23
2022-12-17T19:32:23.403Z,19.18
2022-12-17T19:37:24.821Z,19.37
2022-12-17T19:42:31.941Z,19.20
2022-12-17T19:47:38.078Z,19.15
2022-12-17T19:52:39.575Z,19.35
2022-12-17T19:57:40.948Z,19.14
2022-12-17T20:02:42.409Z,19.17
2022-12-17T20:07:43.811Z,19.04
2022-12-17T20:12:45.179Z,18.75
2022-12-17T20:17:46.543Z,18.91
2022-12-17T20:22:47.907Z,18.42
2022-12-17T20:27:49.319Z,18.18
2022-12-17T20:32:53.483Z,18.02
2022-12-17T20:37:54.863Z,18.08
2022-12-17T20:42:56.231Z,18.03
2022-12-17T20:47:57.603Z,17.93
2022-12-17T20:52:58.992Z,17.75
2022-12-17T20:58:00.369Z,17.85
2022-12-17T21:03:02.147Z,17.64
2022-12-17T21:08:03.713Z,17.65
2022-12-17T21:13:27.864Z,17.40
2022-12-17T21:18:29.591Z,17.40
2022-12-17T21:23:31.198Z,17.45
2022-12-17T21:28:32.996Z,17.53
2022-12-17T21:33:34.401Z,17.58
2022-12-17T21:38:36.305Z,17.30
2022-12-17T21:43:38.012Z,17.59
2022-12-17T21:48:42.230Z,17.39
2022-12-17T21:53:43.911Z,17.27
2022-12-17T21:58:45.661Z,17.49
2022-12-17T22:03:53.316Z,17.43
2022-12-17T22:08:58.544Z,17.33
2022-12-17T22:14:16.941Z,17.11
2022-12-17T22:19:22.611Z,17.16
2022-12-17T22:24:24.726Z,16.77
2022-12-17T22:30:04.927Z,16.74
2022-12-17T22:37:56.475Z,16.99
2022-12-17T22:44:35.298Z,16.98
2022-12-17T22:45:49.550Z,16.94
2022-12-17T22:50:51.013Z,16.88
2022-12-17T22:55:55.604Z,17.24
2022-12-17T23:00:59.072Z,16.72
2022-12-17T23:06:11.591Z,16.86
2022-12-17T23:11:17.967Z,17.29
2022-12-17T23:16:19.429Z,16.88
2022-12-17T23:21:24.677Z,16.78
2022-12-17T23:26:28.069Z,16.86
2022-12-17T23:31:32.754Z,16.71
2022-12-17T23:36:34.214Z,16.39
2022-12-17T23:41:35.577Z,16.32
2022-12-17T23:46:36.980Z,16.29
2022-12-17T23:51:38.387Z,16.28
2022-12-17T23:56:39.775Z,16.10
